Bochem Mumbai — VRHJ8 — position and weather

sailwx.info

Track history (hours):
 
Tides and Currents Weather Stations Pressure Air Temp Water Temp Dewpoint Dewpoint Depression Visibility Wind Speed Wind Dir Waves Ship Positions

Bochem Mumbai

Last reported at 2018-May-23 10:17 UTC. Time now 2018-May-25 22:46 UTC.
Position N 31°22' E 032°20'.

Length 171 m; draft 10.9 m.

Type: Tanker. MMSI: 477932400.

Date/timePositionNaut miles runAvg speedWind from/ knotsBaromVisibWave heightAir tempDewpointWater temp
2018-May-23 10:17N 31°22' E 032°20'0 0.3
2018-May-23 10:00N 31°22' E 032°20'1 2.6
2018-May-23 09:29N 31°24' E 032°20'10011.9
2018-May-23 01:04N 32°25' E 030°47'113.4
2018-May-23 01:01N 32°26' E 030°46'  
2018-May-17 07:25N 36°01' W 005°12'614.8
2018-May-17 07:01N 35°60' W 005°20'714.2
2018-May-17 06:31N 35°58' W 005°28'714.6
2018-May-17 06:00N 35°55' W 005°37'815.1
2018-May-17 05:31N 35°55' W 005°46'815.3
2018-May-17 05:00N 35°55' W 005°55'35011.6
2018-May-15 22:55N 31°43' W 010°48'  
Track history (hours):
 
Tides and Currents Weather Stations Pressure Air Temp Water Temp Dewpoint Dewpoint Depression Visibility Wind Speed Wind Dir Waves Ship Positions

Bochem Mumbai

Last reported at 2018-May-23 10:17 UTC. Time now 2018-May-25 22:46 UTC.
Position N 31°22' E 032°20'.

Length 171 m; draft 10.9 m.

Type: Tanker. MMSI: 477932400.

Date/timePositionNaut miles runAvg speedWind from/ knotsBaromVisibWave heightAir tempDewpointWater temp
2018-May-23 10:17N 31°22' E 032°20'0 0.3
2018-May-23 10:00N 31°22' E 032°20'1 2.6
2018-May-23 09:29N 31°24' E 032°20'10011.9
2018-May-23 01:04N 32°25' E 030°47'113.4
2018-May-23 01:01N 32°26' E 030°46'  
2018-May-17 07:25N 36°01' W 005°12'614.8
2018-May-17 07:01N 35°60' W 005°20'714.2
2018-May-17 06:31N 35°58' W 005°28'714.6
2018-May-17 06:00N 35°55' W 005°37'815.1
2018-May-17 05:31N 35°55' W 005°46'815.3
2018-May-17 05:00N 35°55' W 005°55'35011.6
2018-May-15 22:55N 31°43' W 010°48'  

Dump ship's entire track history